Time;durP1;ratioP1;P1;durP2;ratioP2;P2;SDS_P1;SDS_P2;PMS_P1;PMS_P2;Temp;Humidity;BMP_temperature;BMP_pressure;BME280_temperature;BME280_humidity;BME280_pressure;Samples;Min_cycle;Max_cycle;Signal;HPM_P1;HPM_P2
2023/04/08 00:01:51;;;;;;;;;2.00;2.00;;;;;20.48;34.36;101591.97;5085002;27;45450;-71
2023/04/08 00:04:17;;;;;;;;;3.00;1.25;;;;;20.49;34.68;101597.22;5072822;27;45281;-69
2023/04/08 00:06:42;;;;;;;;;1.25;1.25;;;;;20.51;34.44;101601.59;5080718;28;45348;-69
2023/04/08 00:09:07;;;;;;;;;2.00;2.00;;;;;20.51;34.56;101606.91;5081201;27;64178;-69
2023/04/08 00:11:33;;;;;;;;;2.75;2.00;;;;;20.49;34.60;101604.34;5056832;27;64066;-71
2023/04/08 00:13:59;;;;;;;;;2.00;2.00;;;;;20.47;34.39;101596.44;5084073;27;64694;-71
2023/04/08 00:16:24;;;;;;;;;1.00;1.00;;;;;20.45;34.30;101595.66;5081431;27;45315;-71
2023/04/08 00:18:50;;;;;;;;;2.00;1.75;;;;;20.48;34.38;101592.81;5057133;27;46120;-71
2023/04/08 00:21:16;;;;;;;;;3.00;2.00;;;;;20.42;34.27;101581.69;5090457;27;45255;-71
2023/04/08 00:23:42;;;;;;;;;2.50;2.50;;;;;20.48;34.67;101597.28;5074309;27;45405;-71
2023/04/08 00:26:07;;;;;;;;;2.50;2.00;;;;;20.47;34.68;101591.13;5063090;27;45899;-71
2023/04/08 00:28:33;;;;;;;;;3.00;1.75;;;;;20.46;34.66;101600.03;5100232;27;70425;-69
2023/04/08 00:30:58;;;;;;;;;1.25;1.25;;;;;20.47;34.73;101598.25;5089769;27;71879;-69
2023/04/08 00:33:24;;;;;;;;;1.00;1.00;;;;;20.45;34.50;101598.31;5064417;27;45329;-69
2023/04/08 00:35:50;;;;;;;;;1.00;1.00;;;;;20.45;34.58;101600.97;5051044;28;45467;-69
2023/04/08 00:38:15;;;;;;;;;1.25;1.25;;;;;20.46;34.44;101609.81;5064681;27;45514;-69
2023/04/08 00:40:41;;;;;;;;;2.00;1.00;;;;;20.46;34.38;101609.81;5089715;27;71627;-69
2023/04/08 00:43:06;;;;;;;;;0.75;0.75;;;;;20.45;34.36;101608.06;5081465;27;45498;-69
2023/04/08 00:45:32;;;;;;;;;2.00;2.00;;;;;20.45;34.50;101608.97;5068441;28;45206;-69
2023/04/08 00:47:58;;;;;;;;;1.75;1.75;;;;;20.42;34.57;101602.94;5061021;27;46931;-68
2023/04/08 00:50:23;;;;;;;;;2.00;2.00;;;;;20.42;34.25;101611.78;5062384;27;67203;-69
2023/04/08 00:52:48;;;;;;;;;2.00;2.00;;;;;20.43;34.36;101610.84;5058683;27;45449;-69
2023/04/08 00:55:14;;;;;;;;;1.00;1.00;;;;;20.43;34.37;101612.63;5091390;27;62054;-69
2023/04/08 00:57:39;;;;;;;;;2.50;1.50;;;;;20.43;34.21;101612.63;5078765;27;46064;-69
2023/04/08 01:00:05;;;;;;;;;3.50;1.25;;;;;20.43;34.25;101612.63;5059881;28;45402;-69
2023/04/08 01:02:46;;;;;;;;;2.00;2.00;;;;;20.44;34.37;101611.69;5079020;27;45447;-71
2023/04/08 01:05:15;;;;;;;;;2.50;2.00;;;;;20.41;34.49;101611.84;5080306;27;45542;-71
2023/04/08 01:07:44;;;;;;;;;2.00;2.00;;;;;20.44;34.71;101614.34;5065104;27;47121;-71
2023/04/08 01:10:12;;;;;;;;;2.00;2.00;;;;;20.43;34.67;101615.28;5065231;28;45281;-71
2023/04/08 01:12:41;;;;;;;;;1.50;1.25;;;;;20.41;34.66;101607.38;5079446;27;45280;-71
2023/04/08 01:15:09;;;;;;;;;1.25;1.25;;;;;20.42;34.78;101617.09;5072887;27;45408;-71
2023/04/08 01:17:35;;;;;;;;;1.75;1.00;;;;;20.41;34.18;101614.50;5066394;27;46805;-71
2023/04/08 01:20:03;;;;;;;;;1.00;1.00;;;;;20.40;34.72;101607.50;5066020;28;45532;-71
2023/04/08 01:22:28;;;;;;;;;3.00;1.75;;;;;20.42;34.45;101617.09;5049617;27;45266;-71
2023/04/08 01:25:09;;;;;;;;;2.00;2.00;;;;;20.42;34.30;101617.09;5065376;28;45328;-71
2023/04/08 01:27:36;;;;;;;;;3.25;2.00;;;;;20.38;34.19;101614.69;5075631;27;47250;-71
2023/04/08 01:30:07;;;;;;;;;1.75;1.75;;;;;20.38;34.26;101618.22;5056269;28;71034;-71
2023/04/08 01:32:33;;;;;;;;;2.00;2.00;;;;;20.36;34.32;101609.47;5054328;28;45516;-71
2023/04/08 01:35:00;;;;;;;;;1.00;1.00;;;;;20.38;34.73;101618.22;5077302;27;45348;-71
2023/04/08 01:37:27;;;;;;;;;2.00;2.00;;;;;20.40;34.62;101612.81;5087141;27;74557;-71
2023/04/08 01:39:54;;;;;;;;;3.00;0.50;;;;;20.36;34.55;101617.44;5058398;27;45648;-71
2023/04/08 01:42:22;;;;;;;;;3.50;2.00;;;;;20.36;34.85;101608.59;5062595;27;45369;-71
2023/04/08 01:44:48;;;;;;;;;1.25;1.25;;;;;20.36;34.88;101612.13;5062030;27;45619;-71
2023/04/08 01:47:14;;;;;;;;;1.75;1.75;;;;;20.37;34.60;101605.00;5078758;27;46400;-71
2023/04/08 01:49:40;;;;;;;;;1.50;1.25;;;;;20.38;34.57;101612.03;5092442;27;45933;-71
2023/04/08 01:52:08;;;;;;;;;2.00;2.00;;;;;20.37;34.71;101615.63;5082837;27;62287;-71
2023/04/08 01:54:34;;;;;;;;;3.00;1.00;;;;;20.37;34.76;101616.47;5063316;27;62906;-71
2023/04/08 01:57:00;;;;;;;;;3.50;2.00;;;;;20.33;34.75;101608.75;5071818;27;45528;-71
2023/04/08 01:59:29;;;;;;;;;2.00;2.00;;;;;20.37;34.37;101612.97;5069701;27;47519;-71
2023/04/08 02:01:55;;;;;;;;;1.00;1.00;;;;;20.36;34.42;101614.78;5083271;27;45383;-69
2023/04/08 02:04:21;;;;;;;;;1.00;1.00;;;;;20.36;34.75;101621.88;5075558;27;52819;-69
2023/04/08 02:06:46;;;;;;;;;2.00;2.00;;;;;20.33;34.77;101608.75;5068275;28;46116;-69
2023/04/08 02:09:12;;;;;;;;;1.75;1.00;;;;;20.33;34.45;101611.41;5070547;27;45261;-69
2023/04/08 02:11:37;;;;;;;;;2.00;2.00;;;;;20.34;34.57;101607.81;5077474;28;45294;-69
2023/04/08 02:14:03;;;;;;;;;4.00;2.25;;;;;20.34;34.90;101603.34;5093594;27;66788;-69
2023/04/08 02:16:54;;;;;;;;;1.75;1.75;;;;;20.34;34.56;101611.31;5080188;27;72846;-69
2023/04/08 02:19:25;;;;;;;;;2.50;2.00;;;;;20.34;34.71;101608.66;5055659;27;45325;-69
2023/04/08 02:21:54;;;;;;;;;3.00;1.00;;;;;20.32;34.42;101602.56;5056838;28;45395;-69
2023/04/08 02:24:21;;;;;;;;;2.75;1.00;;;;;20.33;34.39;101604.31;5073933;27;45288;-69
2023/04/08 02:26:49;;;;;;;;;1.50;1.50;;;;;20.30;34.60;101605.31;5071032;27;47301;-69
2023/04/08 02:29:15;;;;;;;;;2.25;1.00;;;;;20.33;34.61;101604.31;5082105;27;45417;-69
2023/04/08 02:31:41;;;;;;;;;1.00;1.00;;;;;20.32;34.45;101613.22;5069588;27;45383;-69
2023/04/08 02:34:09;;;;;;;;;2.00;2.00;;;;;20.30;34.33;101607.13;5079140;27;45661;-69
2023/04/08 02:36:34;;;;;;;;;2.00;1.00;;;;;20.29;34.70;101600.09;5067291;27;46300;-69
2023/04/08 02:39:00;;;;;;;;;1.00;1.00;;;;;20.30;34.63;101612.44;5082486;27;45281;-69
2023/04/08 02:41:28;;;;;;;;;2.50;1.50;;;;;20.30;34.68;101605.31;5061286;27;53053;-71
2023/04/08 02:43:54;;;;;;;;;3.00;2.00;;;;;20.30;34.68;101609.78;5084708;27;45459;-71
2023/04/08 02:46:20;;;;;;;;;3.00;1.25;;;;;20.32;34.50;101615.03;5082166;27;45364;-69
2023/04/08 02:48:45;;;;;;;;;1.50;1.00;;;;;20.30;34.61;101610.63;5082307;27;45339;-69
2023/04/08 02:51:10;;;;;;;;;1.00;1.00;;;;;20.29;34.71;101608.06;5076511;27;45363;-69
2023/04/08 02:53:36;;;;;;;;;1.00;1.00;;;;;20.30;34.47;101612.44;5073822;27;69215;-69
2023/04/08 02:56:01;;;;;;;;;1.00;1.00;;;;;20.27;34.67;101602.84;5055057;27;46932;-71
2023/04/08 02:58:26;;;;;;;;;2.00;2.00;;;;;20.29;34.42;101614.25;5073777;27;45683;-69
2023/04/08 03:00:52;;;;;;;;;1.50;1.50;;;;;20.29;34.50;101614.25;5070989;27;63962;-71
2023/04/08 03:03:17;;;;;;;;;2.00;2.00;;;;;20.28;34.24;101609.00;5082261;27;45501;-71
2023/04/08 03:05:42;;;;;;;;;2.00;2.00;;;;;20.25;34.78;101601.19;5061443;27;45924;-71
2023/04/08 03:08:08;;;;;;;;;2.50;2.00;;;;;20.28;34.48;101614.34;5052688;27;55876;-71
2023/04/08 03:10:33;;;;;;;;;2.50;1.75;;;;;20.26;34.79;101609.09;5079164;27;65723;-71
2023/04/08 03:12:58;;;;;;;;;1.25;1.25;;;;;20.25;34.69;101610.03;5075662;27;45466;-71
2023/04/08 03:15:24;;;;;;;;;1.50;1.50;;;;;20.21;34.82;101599.66;5063070;27;73610;-71
2023/04/08 03:17:50;;;;;;;;;2.00;2.00;;;;;20.24;34.46;101610.13;5071238;27;45346;-71
2023/04/08 03:20:15;;;;;;;;;2.00;1.75;;;;;20.25;34.39;101611.81;5052963;28;45287;-71
2023/04/08 03:22:40;;;;;;;;;5.00;2.00;;;;;20.26;34.46;101609.09;5078042;27;64902;-71
2023/04/08 03:25:06;;;;;;;;;2.00;2.00;;;;;20.25;34.64;101611.81;5063561;27;71148;-71
2023/04/08 03:27:31;;;;;;;;;2.75;2.00;;;;;20.23;34.57;101603.09;5073140;27;45297;-71
2023/04/08 03:29:57;;;;;;;;;5.00;2.50;;;;;20.22;34.65;101601.34;5074316;27;51547;-71
2023/04/08 03:32:23;;;;;;;;;2.00;2.00;;;;;20.23;34.36;101600.44;5060591;27;45630;-71
2023/04/08 03:34:49;;;;;;;;;4.75;2.75;;;;;20.20;34.59;101600.59;5071911;28;46690;-71
2023/04/08 03:37:16;;;;;;;;;1.75;1.75;;;;;20.21;34.88;101607.63;5051463;27;45879;-71
2023/04/08 03:39:41;;;;;;;;;1.00;1.00;;;;;20.18;34.30;101605.97;5054147;28;45423;-71
2023/04/08 03:42:06;;;;;;;;;4.25;2.00;;;;;20.21;34.67;101611.13;5063240;27;69541;-71
2023/04/08 03:44:31;;;;;;;;;2.00;2.00;;;;;20.23;34.63;101611.91;5078275;27;46394;-71
2023/04/08 03:46:57;;;;;;;;;2.25;2.25;;;;;20.19;34.58;101601.53;5095528;27;59088;-71
2023/04/08 03:49:22;;;;;;;;;2.00;2.00;;;;;20.21;34.65;101612.94;5099094;27;45248;-71
2023/04/08 03:51:47;;;;;;;;;1.75;1.75;;;;;20.20;34.73;101609.44;5073659;27;68767;-71
2023/04/08 03:54:13;;;;;;;;;2.00;2.00;;;;;20.21;34.57;101610.28;5095499;27;72584;-71
2023/04/08 03:56:38;;;;;;;;;2.00;1.75;;;;;20.15;34.40;101610.59;5077631;27;45375;-71
2023/04/08 03:59:04;;;;;;;;;2.00;2.00;;;;;20.22;34.40;101617.31;5081856;27;45560;-71
2023/04/08 04:01:31;;;;;;;;;3.00;2.00;;;;;20.20;34.46;101612.09;5083376;27;63174;-71
2023/04/08 04:03:56;;;;;;;;;1.75;1.75;;;;;20.20;34.54;101614.75;5092536;27;46280;-71
2023/04/08 04:06:21;;;;;;;;;2.75;2.00;;;;;20.20;34.60;101609.44;5073320;27;45228;-71
2023/04/08 04:08:47;;;;;;;;;1.50;1.00;;;;;20.20;34.30;101622.72;5060769;28;61430;-71
2023/04/08 04:11:12;;;;;;;;;3.25;2.75;;;;;20.18;34.44;101613.09;5079406;27;49218;-71
2023/04/08 04:13:37;;;;;;;;;2.00;2.00;;;;;20.18;34.49;101615.75;5083994;27;54320;-71
2023/04/08 04:16:03;;;;;;;;;2.00;2.00;;;;;20.18;34.46;101613.09;5078790;27;45324;-71
2023/04/08 04:18:29;;;;;;;;;2.25;2.25;;;;;20.18;34.20;101621.06;5103450;27;45468;-71
2023/04/08 04:20:54;;;;;;;;;1.75;1.75;;;;;20.16;34.48;101618.50;5057554;27;45500;-71
2023/04/08 04:23:20;;;;;;;;;3.75;3.00;;;;;20.14;34.52;101617.72;5065638;27;47426;-71
2023/04/08 04:25:45;;;;;;;;;4.00;2.00;;;;;20.19;34.41;101622.81;5080397;27;45506;-69
2023/04/08 04:28:10;;;;;;;;;4.00;2.50;;;;;20.16;34.23;101620.31;5097292;27;63138;-71
2023/04/08 04:30:37;;;;;;;;;4.00;2.00;;;;;20.15;34.31;101624.78;5082814;27;45816;-71
2023/04/08 04:33:03;;;;;;;;;2.50;1.00;;;;;20.18;34.43;101632.56;5059057;28;47221;-71
2023/04/08 04:35:28;;;;;;;;;3.00;3.00;;;;;20.16;34.76;101631.78;5069239;27;45313;-71
2023/04/08 04:37:53;;;;;;;;;3.50;2.25;;;;;20.13;34.25;101615.13;5102086;27;64136;-71
2023/04/08 04:40:22;;;;;;;;;2.00;1.50;;;;;20.15;34.64;101623.88;5072824;27;45596;-71
2023/04/08 04:42:47;;;;;;;;;2.00;2.00;;;;;20.16;34.75;101625.63;5093958;27;46505;-71
2023/04/08 04:45:13;;;;;;;;;4.00;2.00;;;;;20.13;34.36;101625.78;5081229;27;65639;-70
2023/04/08 04:47:38;;;;;;;;;3.00;2.00;;;;;20.13;34.80;101634.59;5068536;28;45307;-71
2023/04/08 04:50:05;;;;;;;;;3.50;1.00;;;;;20.14;34.54;101638.97;5080938;27;67428;-71
2023/04/08 04:52:31;;;;;;;;;5.50;2.50;;;;;20.13;34.73;101650.53;5060691;27;48428;-71
2023/04/08 04:54:57;;;;;;;;;2.50;2.00;;;;;20.11;34.33;101644.44;5064859;27;46390;-71
2023/04/08 04:57:22;;;;;;;;;2.00;2.00;;;;;20.13;34.44;101647.88;5065597;28;45351;-71
2023/04/08 04:59:47;;;;;;;;;1.00;1.00;;;;;20.11;34.73;101652.41;5102361;27;45394;-71
2023/04/08 05:02:13;;;;;;;;;3.00;2.00;;;;;20.10;34.22;101651.56;5057984;27;47193;-71
2023/04/08 05:04:38;;;;;;;;;2.50;2.00;;;;;20.13;34.29;101658.50;5070534;27;45336;-71
2023/04/08 05:07:04;;;;;;;;;2.50;2.00;;;;;20.10;34.27;101659.53;5078700;27;45381;-71
2023/04/08 05:09:29;;;;;;;;;2.75;1.00;;;;;20.13;34.33;101662.97;5081604;27;45423;-71
2023/04/08 05:11:55;;;;;;;;;3.50;2.50;;;;;20.11;34.35;101663.06;5074347;27;45300;-71
2023/04/08 05:14:20;;;;;;;;;2.50;2.25;;;;;20.09;34.17;101659.63;5074003;27;45430;-71
2023/04/08 05:16:45;;;;;;;;;2.00;2.00;;;;;20.09;34.48;101657.81;5057559;27;45345;-71
2023/04/08 05:19:11;;;;;;;;;5.75;2.75;;;;;20.06;34.30;101658.00;5081011;27;62566;-71
2023/04/08 05:21:36;;;;;;;;;2.50;2.50;;;;;20.08;34.70;101664.09;5099340;27;69727;-71
2023/04/08 05:24:02;;;;;;;;;2.00;1.00;;;;;20.09;34.39;101670.25;5062037;27;55202;-71
2023/04/08 05:26:27;;;;;;;;;2.50;2.50;;;;;20.09;34.18;101665.78;5071007;27;45441;-71
2023/04/08 05:28:52;;;;;;;;;3.00;1.25;;;;;20.09;34.52;101670.25;5058160;27;45500;-71
2023/04/08 05:31:19;;;;;;;;;2.50;2.25;;;;;20.08;34.10;101673.88;5059698;27;46869;-71
2023/04/08 05:33:45;;;;;;;;;2.00;2.00;;;;;20.06;33.96;101667.75;5080408;27;45276;-71
2023/04/08 05:36:11;;;;;;;;;1.00;1.00;;;;;20.11;34.35;101686.97;5084238;27;45509;-71
2023/04/08 05:38:37;;;;;;;;;2.50;2.50;;;;;20.07;34.60;101682.75;5082072;27;45403;-71
2023/04/08 05:41:02;;;;;;;;;2.00;2.00;;;;;20.05;34.66;101684.66;5053751;28;47166;-71
2023/04/08 05:43:28;;;;;;;;;2.00;2.00;;;;;20.09;34.40;101689.69;5092085;27;45319;-71
2023/04/08 05:45:53;;;;;;;;;1.00;1.00;;;;;20.04;34.75;101682.91;5058856;28;48136;-71
2023/04/08 05:48:18;;;;;;;;;2.75;2.75;;;;;20.07;34.71;101693.41;5069884;27;45356;-69
2023/04/08 05:50:44;;;;;;;;;3.00;2.50;;;;;20.05;34.41;101692.63;5059763;27;75453;-69
2023/04/08 05:53:09;;;;;;;;;3.25;3.25;;;;;20.04;34.60;101705.06;5062990;28;45649;-69
2023/04/08 05:55:35;;;;;;;;;2.00;2.00;;;;;20.06;34.35;101703.16;5074186;27;45475;-69
2023/04/08 05:58:00;;;;;;;;;2.75;2.75;;;;;20.05;34.29;101704.09;5078948;27;45280;-69
2023/04/08 06:00:26;;;;;;;;;2.75;1.75;;;;;20.04;34.46;101705.06;5091435;27;45482;-69
2023/04/08 06:02:51;;;;;;;;;2.00;2.00;;;;;20.02;34.75;101709.56;5073912;28;45315;-69
2023/04/08 06:05:18;;;;;;;;;2.00;2.00;;;;;20.03;34.82;101708.63;5063120;27;45236;-71
2023/04/08 06:07:43;;;;;;;;;4.25;2.75;;;;;20.04;34.21;101707.72;5076755;27;45319;-71
2023/04/08 06:10:09;;;;;;;;;2.75;2.00;;;;;20.03;34.35;101713.09;5077382;27;64271;-71
2023/04/08 06:12:36;;;;;;;;;1.75;1.75;;;;;20.03;34.18;101716.59;5080079;27;45319;-71
2023/04/08 06:15:01;;;;;;;;;4.25;2.00;;;;;20.03;34.27;101713.09;5080468;27;45504;-71
2023/04/08 06:17:26;;;;;;;;;2.00;2.00;;;;;20.02;34.23;101716.69;5082825;27;45486;-71
2023/04/08 06:19:52;;;;;;;;;4.00;3.00;;;;;20.02;34.57;101714.88;5065595;27;61681;-71
2023/04/08 06:22:17;;;;;;;;;3.75;2.00;;;;;20.02;34.65;101711.38;5068617;27;45454;-71
2023/04/08 06:24:42;;;;;;;;;1.25;1.25;;;;;20.03;34.62;101724.56;5065636;28;45301;-71
2023/04/08 06:27:08;;;;;;;;;1.25;1.25;;;;;20.01;34.54;101726.47;5061869;27;45604;-71
2023/04/08 06:29:33;;;;;;;;;2.00;1.75;;;;;20.01;34.32;101721.16;5082854;27;45477;-71
2023/04/08 06:31:59;;;;;;;;;3.00;2.00;;;;;20.01;34.24;101725.56;5074790;27;59169;-71
2023/04/08 06:34:24;;;;;;;;;4.00;2.00;;;;;20.01;34.52;101729.13;5059934;28;45372;-71
2023/04/08 06:36:50;;;;;;;;;2.00;2.00;;;;;20.02;34.34;101733.47;5068829;27;45341;-71
2023/04/08 06:39:15;;;;;;;;;1.00;1.00;;;;;20.03;34.27;101729.03;5081752;27;46249;-71
2023/04/08 06:41:41;;;;;;;;;2.75;2.25;;;;;20.01;34.46;101730.88;5093633;27;45310;-71
2023/04/08 06:44:06;;;;;;;;;3.00;3.00;;;;;20.00;34.62;101738.00;5082041;27;45438;-71
2023/04/08 06:46:32;;;;;;;;;2.25;2.00;;;;;20.00;34.55;101738.00;5080605;27;61281;-71
2023/04/08 06:48:57;;;;;;;;;3.25;2.00;;;;;20.01;34.55;101746.84;5062252;28;61522;-71
2023/04/08 06:51:22;;;;;;;;;3.50;3.00;;;;;20.01;34.37;101747.72;5082218;27;45275;-71
2023/04/08 06:53:48;;;;;;;;;2.75;2.25;;;;;20.01;34.54;101752.16;5076643;28;45457;-71
2023/04/08 06:56:13;;;;;;;;;3.75;3.75;;;;;20.01;34.19;101754.81;5094005;27;68718;-69
2023/04/08 06:58:38;;;;;;;;;1.00;1.00;;;;;19.99;34.44;101764.66;5077999;27;51039;-69
2023/04/08 07:01:04;;;;;;;;;2.00;2.00;;;;;19.96;34.55;101763.03;5093055;27;45227;-69
2023/04/08 07:03:29;;;;;;;;;2.00;2.00;;;;;19.99;34.56;101768.19;5075778;27;45190;-69
2023/04/08 07:05:55;;;;;;;;;3.00;2.00;;;;;19.97;34.34;101762.06;5052571;27;45662;-69
2023/04/08 07:08:20;;;;;;;;;2.00;2.00;;;;;20.00;34.43;101771.69;5071655;27;45547;-69
2023/04/08 07:10:46;;;;;;;;;2.75;2.00;;;;;19.98;34.41;101771.78;5078823;27;45604;-69
2023/04/08 07:13:12;;;;;;;;;2.75;2.00;;;;;19.98;34.50;101776.25;5097815;27;47929;-69
2023/04/08 07:15:37;;;;;;;;;4.50;3.00;;;;;19.99;34.58;101772.63;5078555;27;45413;-69
2023/04/08 07:18:03;;;;;;;;;3.75;2.00;;;;;20.00;34.27;101779.69;5063792;27;47104;-69
2023/04/08 07:20:29;;;;;;;;;2.00;2.00;;;;;20.00;34.40;101779.69;5096607;27;45299;-69
2023/04/08 07:22:54;;;;;;;;;4.00;2.75;;;;;20.00;34.29;101785.84;5059504;28;45475;-69
2023/04/08 07:25:19;;;;;;;;;3.00;3.00;;;;;19.98;34.38;101784.22;5073905;27;45453;-69
2023/04/08 07:27:45;;;;;;;;;3.00;2.00;;;;;19.98;34.39;101773.59;5087769;27;45371;-69
2023/04/08 07:30:11;;;;;;;;;2.00;2.00;;;;;19.97;34.25;101778.00;5075815;27;45376;-69
2023/04/08 07:32:36;;;;;;;;;4.00;4.00;;;;;19.96;34.40;101778.97;5069976;28;45407;-69
2023/04/08 07:35:02;;;;;;;;;4.00;2.75;;;;;19.98;34.50;101785.06;5076802;27;45359;-69
2023/04/08 07:37:28;;;;;;;;;3.25;3.25;;;;;19.99;34.48;101784.13;5069562;27;46260;-69
2023/04/08 07:39:53;;;;;;;;;3.00;3.00;;;;;19.97;34.57;101782.47;5077169;27;69810;-69
2023/04/08 07:42:19;;;;;;;;;2.50;2.25;;;;;19.96;34.04;101781.63;5100342;27;45590;-69
2023/04/08 07:44:45;;;;;;;;;3.00;3.00;;;;;19.97;34.37;101780.66;5078527;27;45513;-69
2023/04/08 07:47:10;;;;;;;;;2.00;2.00;;;;;19.98;34.54;101792.19;5080722;27;45382;-69
2023/04/08 07:49:36;;;;;;;;;5.25;2.75;;;;;19.97;34.55;101791.28;5080068;27;45457;-69
2023/04/08 07:52:01;;;;;;;;;3.50;2.25;;;;;19.97;34.46;101791.28;5101641;27;45381;-69
2023/04/08 07:54:27;;;;;;;;;2.00;2.00;;;;;19.98;34.61;101793.03;5078509;27;67175;-69
2023/04/08 07:56:52;;;;;;;;;3.00;2.00;;;;;19.95;34.18;101795.84;5101088;27;46358;-69
2023/04/08 07:59:17;;;;;;;;;4.75;2.75;;;;;19.96;34.22;101800.22;5084398;27;63262;-69
2023/04/08 08:01:43;;;;;;;;;3.00;2.00;;;;;19.97;34.24;101799.28;5081200;27;45426;-69
2023/04/08 08:04:08;;;;;;;;;3.50;3.00;;;;;19.97;34.55;101809.91;5094717;27;45555;-69
2023/04/08 08:06:33;;;;;;;;;2.25;2.00;;;;;19.98;34.26;101802.81;5072884;28;75529;-69
2023/04/08 08:08:59;;;;;;;;;3.00;3.00;;;;;19.98;34.25;101808.13;5080420;27;54138;-69
2023/04/08 08:11:28;;;;;;;;;3.75;2.25;;;;;19.96;34.63;101797.56;5103432;27;45496;-69
2023/04/08 08:13:53;;;;;;;;;1.25;1.25;;;;;19.97;34.30;101804.59;5083244;27;45245;-69
2023/04/08 08:16:19;;;;;;;;;3.00;2.75;;;;;19.98;34.10;101808.13;5052267;28;47173;-69
2023/04/08 08:18:44;;;;;;;;;4.00;4.00;;;;;19.97;33.95;101814.34;5064750;27;45263;-68
2023/04/08 08:21:10;;;;;;;;;3.00;3.00;;;;;19.97;34.13;101804.59;5075004;28;45529;-69
2023/04/08 08:23:36;;;;;;;;;4.75;3.75;;;;;19.99;34.54;101809.81;5068030;27;45257;-69
2023/04/08 08:26:08;;;;;;;;;3.25;2.75;;;;;19.97;34.26;101803.72;5067735;27;47049;-69
2023/04/08 08:28:34;;;;;;;;;4.50;4.00;;;;;19.96;34.18;101808.19;5070019;27;45194;-69
2023/04/08 08:30:59;;;;;;;;;3.00;3.00;;;;;19.97;34.71;101811.69;5099985;27;45295;-69
2023/04/08 08:33:25;;;;;;;;;3.00;3.00;;;;;19.96;34.32;101804.69;5079009;27;45357;-69
2023/04/08 08:35:50;;;;;;;;;4.50;2.50;;;;;19.98;34.70;101814.28;5061919;28;47023;-69
2023/04/08 08:38:16;;;;;;;;;4.25;4.25;;;;;19.96;34.49;101807.34;5066099;27;45461;-69
2023/04/08 08:40:42;;;;;;;;;4.25;3.50;;;;;19.95;34.77;101806.47;5072504;27;45280;-69
2023/04/08 08:43:08;;;;;;;;;3.75;3.00;;;;;19.97;34.50;101817.88;5057526;27;45540;-69
2023/04/08 08:45:38;;;;;;;;;3.25;3.25;;;;;19.98;34.49;101810.78;5084241;27;46598;-69
2023/04/08 08:48:04;;;;;;;;;3.75;2.75;;;;;19.97;34.21;101812.56;5076801;27;45312;-68
2023/04/08 08:50:30;;;;;;;;;4.75;3.75;;;;;19.97;34.49;101812.56;5078410;27;45366;-69
2023/04/08 08:52:55;;;;;;;;;3.25;3.00;;;;;19.95;34.40;101806.47;5101520;27;72175;-69
2023/04/08 08:55:21;;;;;;;;;4.00;2.75;;;;;19.98;34.55;101811.63;5097690;27;70858;-70
2023/04/08 08:57:50;;;;;;;;;4.50;2.50;;;;;19.99;34.57;101808.06;5096897;27;72672;-70
2023/04/08 09:00:16;;;;;;;;;6.00;3.00;;;;;19.98;34.54;101808.97;5084361;27;45354;-70
2023/04/08 09:02:42;;;;;;;;;4.25;3.00;;;;;19.98;34.58;101814.28;5079299;27;45259;-70
2023/04/08 09:05:07;;;;;;;;;7.00;4.00;;;;;19.96;34.43;101805.53;5064268;27;47435;-70
2023/04/08 09:07:39;;;;;;;;;3.00;3.00;;;;;19.98;34.46;101808.13;5077454;27;45248;-70
2023/04/08 09:10:05;;;;;;;;;7.75;3.50;;;;;19.98;34.31;101816.09;5081613;27;45386;-70
2023/04/08 09:12:30;;;;;;;;;3.00;2.00;;;;;19.99;34.77;101821.34;5072728;27;45425;-70
2023/04/08 09:15:06;;;;;;;;;2.75;2.25;;;;;19.96;34.58;101816.16;5098492;27;66108;-71
2023/04/08 09:17:40;;;;;;;;;3.50;3.00;;;;;19.99;34.25;101823.09;5065646;27;45774;-70
2023/04/08 09:20:13;;;;;;;;;3.75;3.75;;;;;19.98;34.27;101821.41;5075667;27;45300;-70
2023/04/08 09:22:54;;;;;;;;;3.00;2.50;;;;;20.00;34.24;101819.53;5063327;28;45534;-70
2023/04/08 09:25:28;;;;;;;;;3.75;3.75;;;;;19.98;34.27;101818.75;5066284;27;47102;-70
2023/04/08 09:27:54;;;;;;;;;4.25;3.00;;;;;19.99;34.26;101826.66;5064727;27;45800;-70
2023/04/08 09:30:26;;;;;;;;;6.50;4.00;;;;;20.00;34.55;101827.50;5096533;27;45572;-71
2023/04/08 09:33:05;;;;;;;;;4.25;3.25;;;;;19.97;34.46;101824.97;5059782;28;45478;-70
2023/04/08 09:35:31;;;;;;;;;5.75;3.00;;;;;19.99;34.20;101829.31;5081160;27;45443;-70
2023/04/08 09:37:56;;;;;;;;;4.50;4.00;;;;;20.01;34.71;101829.19;5074712;27;73311;-70
2023/04/08 09:40:24;;;;;;;;;6.50;3.50;;;;;19.97;34.75;101812.56;5078436;27;64669;-70
2023/04/08 09:42:52;;;;;;;;;3.75;3.00;;;;;19.97;34.50;101817.88;5071509;28;45525;-71
2023/04/08 09:45:18;;;;;;;;;3.25;3.00;;;;;19.98;34.22;101824.06;5059042;27;48100;-70
2023/04/08 09:47:56;;;;;;;;;4.00;3.25;;;;;19.99;34.46;101828.44;5076408;27;45248;-70
2023/04/08 09:50:29;;;;;;;;;5.00;3.25;;;;;19.97;34.48;101822.31;5076267;27;45409;-70
2023/04/08 09:53:00;;;;;;;;;3.50;2.75;;;;;20.00;34.58;101827.50;5057445;27;45267;-70
2023/04/08 09:55:27;;;;;;;;;4.00;4.00;;;;;19.99;34.09;101829.31;5060582;28;47450;-70
2023/04/08 09:58:02;;;;;;;;;5.50;3.00;;;;;20.00;34.53;101823.03;5063044;27;45726;-70
2023/04/08 10:00:37;;;;;;;;;6.25;2.75;;;;;20.00;34.13;101828.34;5078870;27;45260;-70
2023/04/08 10:03:10;;;;;;;;;3.50;3.25;;;;;20.01;34.58;101821.22;5069517;28;45309;-70
2023/04/08 10:05:38;;;;;;;;;4.00;3.75;;;;;19.99;34.58;101828.44;5076547;27;47130;-70
2023/04/08 10:08:05;;;;;;;;;5.50;3.75;;;;;20.00;34.35;101831.00;5070941;27;45870;-70
2023/04/08 10:10:30;;;;;;;;;3.75;3.75;;;;;20.00;34.27;101828.34;5082237;27;45320;-70
2023/04/08 10:12:56;;;;;;;;;4.00;4.00;;;;;20.00;34.25;101822.19;5066734;27;45506;-70
2023/04/08 10:15:31;;;;;;;;;5.00;3.75;;;;;20.03;34.38;101830.00;5074214;27;75492;-70
2023/04/08 10:18:03;;;;;;;;;5.75;3.00;;;;;20.03;34.41;101832.66;5082893;27;45474;-70
2023/04/08 10:20:48;;;;;;;;;3.50;3.25;;;;;20.03;34.42;101840.66;5080545;27;45473;-70
2023/04/08 10:23:19;;;;;;;;;6.00;3.00;;;;;20.01;34.44;101826.53;5048242;28;65954;-71
2023/04/08 10:25:49;;;;;;;;;4.50;4.00;;;;;20.01;34.40;101830.09;5084680;27;45513;-70
2023/04/08 10:28:16;;;;;;;;;4.00;3.50;;;;;20.04;34.28;101834.38;5060426;28;45522;-70
2023/04/08 10:30:51;;;;;;;;;4.00;3.00;;;;;20.03;34.54;101830.88;5067976;27;45489;-70
2023/04/08 10:33:23;;;;;;;;;4.50;4.50;;;;;20.04;34.34;101826.41;5097123;27;45350;-70
2023/04/08 10:35:51;;;;;;;;;5.00;4.00;;;;;20.03;34.38;101822.91;5067790;27;46211;-70
2023/04/08 10:38:17;;;;;;;;;4.75;4.00;;;;;20.02;34.54;101822.97;5067210;27;45518;-70
2023/04/08 10:40:43;;;;;;;;;3.25;3.25;;;;;20.03;34.76;101816.72;5062094;28;45340;-70
2023/04/08 10:43:10;;;;;;;;;4.25;3.00;;;;;20.04;34.42;101813.13;5075173;27;45577;-70
2023/04/08 10:45:36;;;;;;;;;4.00;3.00;;;;;20.04;34.11;101814.00;5082416;27;45464;-70
2023/04/08 10:48:12;;;;;;;;;4.00;4.00;;;;;20.02;34.45;101805.22;5055827;27;45309;-70
2023/04/08 10:50:37;;;;;;;;;4.00;4.00;;;;;20.03;34.52;101792.81;5076308;28;45254;-70
2023/04/08 10:53:03;;;;;;;;;4.00;4.00;;;;;20.03;34.54;101792.81;5060734;27;47199;-70
2023/04/08 10:55:30;;;;;;;;;4.75;4.00;;;;;20.06;34.57;101789.97;5060564;28;48184;-70
2023/04/08 10:58:07;;;;;;;;;5.50;4.00;;;;;20.05;34.58;101789.13;5075684;28;45379;-70
2023/04/08 11:00:37;;;;;;;;;4.75;4.00;;;;;20.04;34.60;101791.84;5092618;27;45335;-70
2023/04/08 11:03:07;;;;;;;;;4.00;4.00;;;;;20.07;34.57;101786.41;5077365;27;45282;-70
2023/04/08 11:05:33;;;;;;;;;3.25;3.25;;;;;20.04;34.66;101789.19;5063036;27;48575;-70
2023/04/08 11:07:59;;;;;;;;;3.00;3.00;;;;;20.04;34.57;101787.44;5100196;27;45351;-70
2023/04/08 11:10:25;;;;;;;;;3.75;2.00;;;;;20.05;34.49;101781.16;5077755;27;45350;-70
2023/04/08 11:12:50;;;;;;;;;3.00;3.00;;;;;20.04;34.84;101782.13;5068826;27;45348;-70
2023/04/08 11:15:17;;;;;;;;;5.00;3.25;;;;;20.04;34.49;101771.47;5082372;27;45438;-70
2023/04/08 11:17:43;;;;;;;;;3.00;2.50;;;;;20.06;34.33;101782.91;5075086;27;45878;-70
2023/04/08 11:20:09;;;;;;;;;2.75;2.75;;;;;20.05;34.54;101775.00;5082540;27;45198;-70
2023/04/08 11:22:35;;;;;;;;;2.50;2.50;;;;;20.04;34.44;101773.25;5078225;27;45594;-70